Time;durP1;ratioP1;P1;durP2;ratioP2;P2;SDS_P1;SDS_P2;PMS_P1;PMS_P2;Temp;Humidity;BMP_temperature;BMP_pressure;BME280_temperature;BME280_humidity;BME280_pressure;Samples;Min_cycle;Max_cycle;Signal;HPM_P1;HPM_P2
2022/11/13 00:01:11;;;;;;;96.32;12.57;;;;;;;10.36;100.00;97413.41;5095308;28;20082;-48
2022/11/13 00:03:40;;;;;;;88.65;11.15;;;;;;;9.47;100.00;97417.50;5095604;28;20086;-43
2022/11/13 00:06:10;;;;;;;107.80;13.85;;;;;;;9.71;100.00;97414.00;5097281;28;20288;-45
2022/11/13 00:08:38;;;;;;;71.40;10.20;;;;;;;9.82;100.00;97405.28;5103135;28;20098;-44
2022/11/13 00:11:08;;;;;;;87.72;10.20;;;;;;;9.83;100.00;97402.50;5097529;28;20609;-41
2022/11/13 00:13:37;;;;;;;106.68;10.57;;;;;;;9.49;100.00;97401.56;5103764;28;20090;-47
2022/11/13 00:16:07;;;;;;;74.97;11.32;;;;;;;9.57;100.00;97401.03;5104963;28;20091;-46
2022/11/13 00:18:36;;;;;;;74.78;9.75;;;;;;;10.11;100.00;97393.31;5100005;28;20086;-47
2022/11/13 00:21:05;;;;;;;65.45;9.98;;;;;;;9.60;100.00;97396.38;5099312;28;20086;-43
2022/11/13 00:23:36;;;;;;;87.03;9.90;;;;;;;8.99;100.00;97390.38;5099982;28;20075;-43
2022/11/13 00:26:05;;;;;;;;;;;;;;;9.68;100.00;97385.25;5100155;28;20079;-43
2022/11/13 00:28:33;;;;;;;57.92;9.75;;;;;;;8.86;100.00;97382.53;5103438;28;19982;-43
2022/11/13 00:31:02;;;;;;;70.32;10.10;;;;;;;9.53;100.00;97379.31;5096499;28;20080;-40
2022/11/13 00:33:31;;;;;;;47.20;9.43;;;;;;;9.52;100.00;97367.13;5102513;28;20560;-45
2022/11/13 00:36:21;;;;;;;37.35;9.07;;;;;;;8.71;100.00;97376.59;5101213;28;20083;-42
2022/11/13 00:38:55;;;;;;;55.03;9.85;;;;;;;8.97;100.00;97374.69;5100607;28;20087;-43
2022/11/13 00:41:24;;;;;;;55.92;10.88;;;;;;;9.65;100.00;97369.69;5096435;28;20075;-46
2022/11/13 00:43:52;;;;;;;46.67;9.45;;;;;;;8.85;100.00;97369.50;5095962;28;20071;-43
2022/11/13 00:46:20;;;;;;;46.45;9.05;;;;;;;8.40;100.00;97374.47;5096107;28;20083;-47
2022/11/13 00:48:49;;;;;;;54.55;9.93;;;;;;;8.79;100.00;97360.25;5102706;28;20487;-45
2022/11/13 00:51:18;;;;;;;56.53;9.13;;;;;;;8.93;100.00;97365.34;5105503;28;20091;-45
2022/11/13 00:53:46;;;;;;;74.20;12.38;;;;;;;9.17;100.00;97359.22;5103034;28;20586;-41
2022/11/13 00:56:16;;;;;;;62.20;9.80;;;;;;;8.72;100.00;97353.75;5096255;28;20080;-44
2022/11/13 00:58:44;;;;;;;48.73;9.73;;;;;;;8.54;100.00;97348.03;5099721;28;20079;-45
2022/11/13 01:01:14;;;;;;;31.42;9.15;;;;;;;8.18;100.00;97348.81;5102656;28;20931;-42
2022/11/13 01:03:43;;;;;;;26.52;8.88;;;;;;;8.34;100.00;97349.44;5102318;28;20094;-40
2022/11/13 01:06:14;;;;;;;34.10;9.32;;;;;;;8.28;100.00;97341.97;5099240;28;21469;-44
2022/11/13 01:08:42;;;;;;;78.90;10.95;;;;;;;8.46;100.00;97335.44;5102901;28;20086;-43
2022/11/13 01:11:13;;;;;;;90.50;12.18;;;;;;;8.86;100.00;97336.97;5099394;28;20086;-45
2022/11/13 01:13:45;;;;;;;59.00;10.82;;;;;;;8.80;100.00;97328.56;5097307;28;20139;-41
2022/11/13 01:16:14;;;;;;;59.58;10.32;;;;;;;8.19;100.00;97326.84;5095612;28;20106;-44
2022/11/13 01:18:44;;;;;;;45.55;9.32;;;;;;;8.92;100.00;97329.47;5096245;28;20082;-42
2022/11/13 01:21:14;;;;;;;72.13;10.73;;;;;;;8.91;100.00;97319.06;5095603;28;20074;-42
2022/11/13 01:23:42;;;;;;;33.03;9.25;;;;;;;8.65;100.00;97318.34;5100715;28;20090;-43
2022/11/13 01:26:12;;;;;;;60.63;11.23;;;;;;;8.51;100.00;97314.09;5098656;28;20610;-45
2022/11/13 01:28:41;;;;;;;56.65;11.05;;;;;;;8.80;100.00;97311.94;5101901;28;20090;-44
2022/11/13 01:31:14;;;;;;;58.03;10.73;;;;;;;8.19;100.00;97309.31;5095205;28;20084;-43
2022/11/13 01:33:42;;;;;;;67.18;10.25;;;;;;;8.35;100.00;97305.59;5098125;28;20143;-48
2022/11/13 01:36:13;;;;;;;81.57;11.02;;;;;;;8.62;100.00;97306.25;5096153;28;20087;-47
2022/11/13 01:38:41;;;;;;;45.13;9.88;;;;;;;7.49;100.00;97311.59;5100494;28;20470;-44
2022/11/13 01:41:16;;;;;;;81.18;10.35;;;;;;;9.14;100.00;97312.94;5094906;28;20537;-46
2022/11/13 01:43:51;;;;;;;65.47;10.50;;;;;;;8.50;100.00;97309.78;5097855;28;20060;-43
2022/11/13 01:46:26;;;;;;;90.82;12.85;;;;;;;8.07;100.00;97311.00;5093042;28;20071;-47
2022/11/13 01:49:00;;;;;;;103.18;10.45;;;;;;;8.11;100.00;97302.91;5098930;28;20075;-43
2022/11/13 01:51:31;;;;;;;51.33;9.95;;;;;;;8.47;100.00;97297.69;5096677;28;20074;-40
2022/11/13 01:54:01;;;;;;;63.38;10.70;;;;;;;8.03;100.00;97293.78;5097339;28;20106;-41
2022/11/13 01:56:29;;;;;;;41.57;9.03;;;;;;;7.72;100.00;97296.88;5100434;28;20076;-44
2022/11/13 01:59:02;;;;;;;45.60;9.65;;;;;;;8.04;100.00;97292.84;5094022;28;20106;-43
2022/11/13 02:01:31;;;;;;;59.67;10.27;;;;;;;8.73;100.00;97287.91;5098969;28;20078;-45
2022/11/13 02:04:00;;;;;;;53.25;10.45;;;;;;;8.47;100.00;97288.97;5098047;28;20075;-42
2022/11/13 02:06:33;;;;;;;66.50;10.30;;;;;;;9.12;100.00;97279.78;5102627;28;20072;-42
2022/11/13 02:09:02;;;;;;;96.05;11.60;;;;;;;9.30;100.00;97280.22;5101221;28;20055;-48
2022/11/13 02:11:30;;;;;;;52.10;9.75;;;;;;;8.82;100.00;97277.66;5098063;28;20083;-43
2022/11/13 02:13:59;;;;;;;72.20;11.27;;;;;;;7.97;100.00;97281.09;5095647;28;20319;-42
2022/11/13 02:16:31;;;;;;;112.85;12.95;;;;;;;8.35;100.00;97289.81;5098630;28;20083;-44
2022/11/13 02:19:00;;;;;;;85.50;12.10;;;;;;;8.20;100.00;97287.34;5092525;28;20087;-45
2022/11/13 02:21:35;;;;;;;70.20;9.85;;;;;;;8.18;100.00;97278.72;5093537;28;20071;-42
2022/11/13 02:24:16;;;;;;;98.47;13.75;;;;;;;8.10;100.00;97273.19;5094889;28;20102;-42
2022/11/13 02:26:45;;;;;;;86.63;12.23;;;;;;;8.28;100.00;97269.22;5102621;28;20501;-46
2022/11/13 02:29:13;;;;;;;57.00;11.32;;;;;;;8.35;100.00;97267.00;5094780;28;20075;-41
2022/11/13 02:31:41;;;;;;;50.60;11.13;;;;;;;8.35;100.00;97268.78;5091748;28;20071;-44
2022/11/13 02:34:10;;;;;;;55.08;11.07;;;;;;;7.81;100.00;97257.72;5091404;28;20076;-41
2022/11/13 02:36:38;;;;;;;50.45;10.85;;;;;;;9.00;100.00;97255.25;5097332;28;20439;-44
2022/11/13 02:39:10;;;;;;;47.17;10.40;;;;;;;9.10;100.00;97250.97;5098470;28;20551;-42
2022/11/13 02:41:39;;;;;;;33.80;10.48;;;;;;;9.71;100.00;97227.00;5092834;28;20474;-40
2022/11/13 02:44:08;;;;;;;46.97;10.98;;;;;;;9.50;100.00;97230.34;5093960;28;20084;-45
2022/11/13 02:46:37;;;;;;;65.38;11.80;;;;;;;9.09;100.00;97230.88;5094835;28;20165;-41
2022/11/13 02:49:06;;;;;;;57.80;12.77;;;;;;;8.79;100.00;97234.03;5094702;28;20079;-50
2022/11/13 02:51:34;;;;;;;34.28;9.48;;;;;;;9.03;100.00;97228.72;5094967;28;20086;-46
2022/11/13 02:54:03;;;;;;;40.45;11.23;;;;;;;9.40;100.00;97215.38;5094231;28;20641;-47
2022/11/13 02:56:31;;;;;;;35.20;10.63;;;;;;;9.49;100.00;97212.00;5098286;28;20082;-49
2022/11/13 02:59:01;;;;;;;30.67;10.88;;;;;;;9.09;100.00;97215.09;5099989;28;20588;-44
2022/11/13 03:01:29;;;;;;;47.97;11.18;;;;;;;9.07;100.00;97209.09;5099407;28;20071;-48
2022/11/13 03:03:58;;;;;;;42.13;10.77;;;;;;;9.39;100.00;97209.25;5093652;28;20693;-50
2022/11/13 03:06:26;;;;;;;32.38;11.50;;;;;;;8.34;100.00;97207.50;5098306;28;20091;-48
2022/11/13 03:08:54;;;;;;;33.25;11.23;;;;;;;8.50;100.00;97210.75;5097148;28;20686;-45
2022/11/13 03:11:23;;;;;;;53.03;12.02;;;;;;;8.33;100.00;97206.69;5098733;28;20086;-45
2022/11/13 03:13:51;;;;;;;44.17;10.95;;;;;;;8.61;100.00;97207.31;5095306;28;20486;-43
2022/11/13 03:16:22;;;;;;;40.08;10.75;;;;;;;8.91;100.00;97192.78;5095423;28;20056;-45
2022/11/13 03:18:50;;;;;;;48.70;10.90;;;;;;;8.61;100.00;97190.69;5100571;28;20056;-44
2022/11/13 03:21:18;;;;;;;55.00;11.35;;;;;;;8.32;100.00;97193.63;5097285;28;20082;-45
2022/11/13 03:23:47;;;;;;;32.33;9.15;;;;;;;8.77;100.00;97191.19;5091017;28;20075;-44
2022/11/13 03:26:17;;;;;;;44.67;10.02;;;;;;;9.10;100.00;97174.66;5094129;28;20454;-46
2022/11/13 03:28:46;;;;;;;26.25;9.85;;;;;;;9.42;100.00;97179.22;5093634;28;20573;-42
2022/11/13 03:31:14;;;;;;;48.17;9.82;;;;;;;9.15;100.00;97184.81;5097949;28;20079;-48
2022/11/13 03:33:44;;;;;;;52.70;11.20;;;;;;;8.11;100.00;97190.78;5096001;28;20083;-47
2022/11/13 03:36:12;;;;;;;56.90;11.73;;;;;;;8.02;100.00;97200.19;5097579;28;20067;-43
2022/11/13 03:38:40;;;;;;;58.50;10.52;;;;;;;8.56;100.00;97188.38;5093172;28;20289;-48
2022/11/13 03:41:08;;;;;;;38.00;8.93;;;;;;;8.65;100.00;97186.88;5090909;28;20072;-43
2022/11/13 03:43:37;;;;;;;53.65;10.10;;;;;;;8.50;100.00;97176.56;5096512;28;20087;-41
2022/11/13 03:46:05;;;;;;;30.55;8.73;;;;;;;8.78;100.00;97177.13;5092959;28;20068;-42
2022/11/13 03:48:34;;;;;;;37.50;9.70;;;;;;;8.07;100.00;97173.56;5095780;28;20094;-45
2022/11/13 03:51:04;;;;;;;30.90;10.32;;;;;;;8.52;100.00;97164.13;5093952;28;20079;-46
2022/11/13 03:53:32;;;;;;;26.98;9.07;;;;;;;8.29;100.00;97167.59;5093291;28;20091;-44
2022/11/13 03:56:01;;;;;;;48.17;9.65;;;;;;;7.90;100.00;97161.66;5098219;28;20087;-47
2022/11/13 03:58:29;;;;;;;33.83;9.27;;;;;;;8.07;100.00;97158.66;5095606;28;20079;-47
2022/11/13 04:00:58;;;;;;;31.02;9.73;;;;;;;7.37;100.00;97166.34;5093870;28;20083;-41
2022/11/13 04:03:26;;;;;;;30.05;9.85;;;;;;;7.30;100.00;97160.66;5090192;28;20091;-42
2022/11/13 04:05:54;;;;;;;34.67;9.63;;;;;;;7.92;100.00;97151.91;5092910;28;20075;-46
2022/11/13 04:08:24;;;;;;;39.00;11.38;;;;;;;7.96;100.00;97153.34;5094025;28;20088;-41
2022/11/13 04:10:53;;;;;;;49.83;9.15;;;;;;;7.87;100.00;97147.91;5098376;28;20078;-41
2022/11/13 04:13:22;;;;;;;36.78;9.07;;;;;;;8.05;100.00;97151.81;5095110;28;20740;-42
2022/11/13 04:15:50;;;;;;;55.53;9.80;;;;;;;7.92;100.00;97141.41;5095047;28;20514;-43
2022/11/13 04:18:18;;;;;;;49.55;10.57;;;;;;;8.39;100.00;97136.25;5097391;28;20068;-50
2022/11/13 04:20:47;;;;;;;31.95;9.15;;;;;;;8.02;100.00;97141.56;5100099;28;20078;-46
2022/11/13 04:23:16;;;;;;;40.28;9.45;;;;;;;8.31;100.00;97140.25;5099086;28;21133;-40
2022/11/13 04:25:48;;;;;;;27.10;8.35;;;;;;;8.27;100.00;97136.19;5099080;28;20087;-50
2022/11/13 04:28:16;;;;;;;58.70;10.77;;;;;;;7.77;100.00;97140.69;5097657;28;20083;-43
2022/11/13 04:30:45;;;;;;;40.97;9.35;;;;;;;8.33;100.00;97137.53;5099216;28;20067;-41
2022/11/13 04:33:13;;;;;;;28.33;9.13;;;;;;;7.69;100.00;97136.97;5100863;28;20506;-47
2022/11/13 04:35:44;;;;;;;31.98;8.13;;;;;;;7.85;100.00;97140.16;5095597;28;20072;-49
2022/11/13 04:38:13;;;;;;;40.72;8.95;;;;;;;7.62;100.00;97133.94;5099311;28;20071;-46
2022/11/13 04:40:42;;;;;;;55.88;10.00;;;;;;;7.06;100.00;97130.91;5099916;28;20079;-43
2022/11/13 04:43:10;;;;;;;39.15;9.20;;;;;;;7.21;100.00;97135.06;5098472;28;20086;-42
2022/11/13 04:45:39;;;;;;;55.78;9.82;;;;;;;7.66;100.00;97135.38;5093527;28;20086;-45
2022/11/13 04:48:07;;;;;;;38.35;8.88;;;;;;;7.47;100.00;97133.25;5096064;28;20079;-47
2022/11/13 04:50:35;;;;;;;53.53;10.45;;;;;;;6.91;100.00;97119.66;5097344;28;20495;-42
2022/11/13 04:53:04;;;;;;;27.70;8.32;;;;;;;7.10;100.00;97119.25;5099650;28;20083;-44
2022/11/13 04:55:32;;;;;;;38.13;8.50;;;;;;;7.52;100.00;97111.91;5100866;28;20075;-44
2022/11/13 04:58:00;;;;;;;41.75;8.95;;;;;;;7.57;100.00;97099.28;5099124;28;20051;-47
2022/11/13 05:00:30;;;;;;;43.92;9.18;;;;;;;8.07;100.00;97105.28;5097909;28;20086;-46
2022/11/13 05:02:58;;;;;;;53.70;9.20;;;;;;;7.11;100.00;97107.81;5100132;28;20087;-43
2022/11/13 05:05:27;;;;;;;75.95;10.80;;;;;;;7.57;100.00;97102.78;5095991;28;20084;-45
2022/11/13 05:07:55;;;;;;;55.80;8.82;;;;;;;7.68;100.00;97107.25;5097160;28;20079;-45
2022/11/13 05:10:23;;;;;;;72.05;9.98;;;;;;;7.75;100.00;97102.41;5097815;28;20092;-47
2022/11/13 05:12:52;;;;;;;47.05;8.07;;;;;;;8.10;100.00;97097.19;5102946;28;20091;-44
2022/11/13 05:15:20;;;;;;;60.75;8.75;;;;;;;7.83;100.00;97105.28;5095255;28;20063;-47
2022/11/13 05:17:50;;;;;;;26.60;8.27;;;;;;;7.78;100.00;97115.31;5100547;28;20075;-46
2022/11/13 05:20:18;;;;;;;31.67;8.23;;;;;;;8.06;100.00;97108.88;5097871;28;20533;-47
2022/11/13 05:22:46;;;;;;;27.52;7.72;;;;;;;8.13;100.00;97112.72;5097415;28;20078;-43
2022/11/13 05:25:15;;;;;;;25.65;8.27;;;;;;;7.85;100.00;97101.63;5094698;28;20522;-44
2022/11/13 05:27:43;;;;;;;36.85;8.40;;;;;;;7.57;100.00;97105.41;5097269;28;20067;-41
2022/11/13 05:30:12;;;;;;;20.77;7.53;;;;;;;7.76;100.00;97094.41;5097682;28;20094;-43
2022/11/13 05:32:40;;;;;;;16.00;8.00;;;;;;;7.30;100.00;97099.50;5093210;28;20082;-41
2022/11/13 05:35:10;;;;;;;27.15;8.52;;;;;;;8.14;100.00;97093.38;5091849;28;20637;-43
2022/11/13 05:37:38;;;;;;;28.05;8.40;;;;;;;8.02;100.00;97084.63;5096967;28;20079;-44
2022/11/13 05:40:08;;;;;;;16.85;8.35;;;;;;;7.95;100.00;97075.53;5098015;28;20075;-45
2022/11/13 05:42:37;;;;;;;18.05;8.10;;;;;;;7.75;100.00;97073.53;5098649;28;20461;-46
2022/11/13 05:45:06;;;;;;;17.10;7.65;;;;;;;8.22;100.00;97069.16;5095436;28;20113;-44
2022/11/13 05:47:34;;;;;;;17.60;8.80;;;;;;;8.08;100.00;97060.50;5100021;28;20079;-47
2022/11/13 05:50:03;;;;;;;10.45;7.57;;;;;;;7.88;100.00;97060.31;5095580;28;22180;-46
2022/11/13 05:52:32;;;;;;;18.88;8.45;;;;;;;7.96;100.00;97053.56;5101175;28;20094;-41
2022/11/13 05:55:01;;;;;;;38.08;8.35;;;;;;;7.80;100.00;97048.59;5096638;28;20067;-42
2022/11/13 05:57:29;;;;;;;33.60;8.15;;;;;;;7.81;100.00;97052.91;5095099;28;20071;-46
2022/11/13 05:59:58;;;;;;;17.05;8.90;;;;;;;7.79;100.00;97046.09;5095252;28;20085;-42
2022/11/13 06:02:26;;;;;;;21.50;8.20;;;;;;;7.72;100.00;97053.56;5101596;28;20083;-43
2022/11/13 06:04:54;;;;;;;19.73;8.63;;;;;;;8.07;100.00;97048.31;5098957;28;20079;-48
2022/11/13 06:07:24;;;;;;;22.27;7.80;;;;;;;8.43;100.00;97043.06;5099214;28;20075;-46
2022/11/13 06:09:53;;;;;;;28.55;7.38;;;;;;;8.68;100.00;97032.34;5097710;28;20079;-43
2022/11/13 06:12:22;;;;;;;13.65;7.55;;;;;;;8.23;100.00;97040.16;5096193;28;20585;-46
2022/11/13 06:14:50;;;;;;;21.30;7.75;;;;;;;8.35;100.00;97040.16;5098024;28;20221;-43
2022/11/13 06:17:18;;;;;;;37.42;8.82;;;;;;;8.31;100.00;97043.03;5095794;28;20466;-48
2022/11/13 06:19:48;;;;;;;27.50;8.45;;;;;;;8.30;100.00;97038.72;5099765;28;20082;-45
2022/11/13 06:22:16;;;;;;;26.95;7.95;;;;;;;8.12;100.00;97040.13;5096191;28;20066;-45
2022/11/13 06:24:44;;;;;;;14.13;7.38;;;;;;;8.05;100.00;97029.25;5100688;28;20082;-49
2022/11/13 06:27:14;;;;;;;26.33;7.57;;;;;;;8.20;100.00;97021.97;5102161;28;20066;-45
2022/11/13 06:29:43;;;;;;;59.73;8.80;;;;;;;7.90;100.00;97014.59;5101247;28;20453;-42
2022/11/13 06:32:11;;;;;;;54.80;10.10;;;;;;;7.97;100.00;97028.94;5102789;28;20071;-45
2022/11/13 06:34:39;;;;;;;63.97;9.43;;;;;;;8.14;100.00;97019.81;5099235;28;20075;-41
2022/11/13 06:37:08;;;;;;;28.85;9.13;;;;;;;8.18;100.00;97008.13;5096299;28;20075;-47
2022/11/13 06:39:37;;;;;;;42.58;9.93;;;;;;;7.86;100.00;97015.78;5097052;28;20082;-43
2022/11/13 06:42:05;;;;;;;63.97;10.43;;;;;;;8.06;100.00;97009.06;5096629;28;20074;-45
2022/11/13 06:44:35;;;;;;;39.30;10.77;;;;;;;8.46;100.00;96999.00;5094693;28;20530;-44
2022/11/13 06:47:03;;;;;;;54.53;11.17;;;;;;;8.78;100.00;96988.63;5091428;28;20541;-42
2022/11/13 06:49:32;;;;;;;58.88;11.20;;;;;;;8.49;100.00;96990.03;5095689;28;20508;-42
2022/11/13 06:52:00;;;;;;;62.30;10.85;;;;;;;8.19;100.00;96991.41;5098840;28;20071;-40
2022/11/13 06:54:28;;;;;;;42.75;10.82;;;;;;;8.64;100.00;96983.59;5093028;28;20557;-42
2022/11/13 06:56:57;;;;;;;34.60;10.68;;;;;;;8.54;100.00;96972.97;5096987;28;20082;-42
2022/11/13 06:59:25;;;;;;;47.22;12.48;;;;;;;8.84;100.00;96973.28;5092086;28;20717;-41
2022/11/13 07:01:55;;;;;;;51.00;11.00;;;;;;;8.94;100.00;96961.09;5095877;28;20086;-49
2022/11/13 07:04:23;;;;;;;41.47;11.30;;;;;;;9.08;100.00;96958.19;5099445;28;20138;-41
2022/11/13 07:06:51;;;;;;;48.88;10.45;;;;;;;8.89;100.00;96958.84;5095358;28;20139;-47
2022/11/13 07:09:20;;;;;;;48.10;10.60;;;;;;;8.67;100.00;96958.84;5095606;28;20101;-46
2022/11/13 07:11:48;;;;;;;72.80;12.75;;;;;;;9.02;100.00;96966.59;5097373;28;20076;-46
2022/11/13 07:14:16;;;;;;;49.35;10.40;;;;;;;8.74;100.00;96962.66;5096132;28;20467;-49
2022/11/13 07:16:45;;;;;;;74.70;11.43;;;;;;;9.10;100.00;96958.91;5097471;28;20078;-48
2022/11/13 07:19:34;;;;;;;56.10;11.57;;;;;;;9.02;100.00;96964.78;5096576;28;20470;-43
2022/11/13 07:22:03;;;;;;;111.43;13.82;;;;;;;8.45;100.00;96976.28;5094722;28;20109;-51
2022/11/13 07:24:31;;;;;;;100.40;12.55;;;;;;;8.43;100.00;96972.97;5096144;28;20079;-45
2022/11/13 07:26:59;;;;;;;59.70;11.23;;;;;;;9.00;100.00;96966.69;5097798;28;20081;-45
2022/11/13 07:29:28;;;;;;;96.53;31.35;;;;;;;9.45;100.00;96949.97;5096216;28;20083;-46
2022/11/13 07:31:56;;;;;;;75.28;29.98;;;;;;;9.04;100.00;96947.06;5098463;28;20079;-44
2022/11/13 07:34:24;;;;;;;74.85;23.15;;;;;;;8.77;100.00;96949.28;5087224;28;20079;-44
2022/11/13 07:36:54;;;;;;;68.97;25.83;;;;;;;9.23;100.00;96950.88;5093963;28;20083;-41
2022/11/13 07:39:22;;;;;;;49.57;12.90;;;;;;;8.99;100.00;96966.84;5097133;28;20080;-43
2022/11/13 07:41:51;;;;;;;76.63;12.02;;;;;;;8.61;100.00;96991.72;5094704;28;20481;-44
2022/11/13 07:44:20;;;;;;;63.10;12.35;;;;;;;8.80;100.00;96980.59;5098507;28;21294;-47
2022/11/13 07:47:08;;;;;;;58.78;15.65;;;;;;;8.68;100.00;96987.66;5096804;28;20086;-42
2022/11/13 07:49:37;;;;;;;59.90;13.88;;;;;;;8.75;100.00;96986.22;5096019;28;20560;-45
2022/11/13 07:52:06;;;;;;;84.78;13.95;;;;;;;8.48;100.00;96988.38;5104763;28;20101;-47
2022/11/13 07:54:35;;;;;;;82.50;13.50;;;;;;;8.71;100.00;96982.16;5101986;28;20071;-48
2022/11/13 07:57:03;;;;;;;63.88;13.38;;;;;;;8.23;100.00;96986.78;5094987;28;20083;-48
2022/11/13 07:59:32;;;;;;;88.82;14.20;;;;;;;7.99;100.00;96997.34;5104481;28;20074;-50
2022/11/13 08:02:00;;;;;;;53.13;12.13;;;;;;;8.35;100.00;97000.75;5097631;28;20083;-48
2022/11/13 08:04:30;;;;;;;70.13;13.88;;;;;;;8.16;100.00;96988.19;5103277;28;20076;-41
2022/11/13 08:06:58;;;;;;;64.25;14.55;;;;;;;9.33;100.00;96979.91;5100648;28;20075;-43
2022/11/13 08:09:28;;;;;;;55.42;16.67;;;;;;;9.23;100.00;96980.66;5100349;28;20075;-45
2022/11/13 08:11:56;;;;;;;40.43;12.50;;;;;;;9.09;100.00;96978.28;5099759;28;20083;-43
2022/11/13 08:14:24;;;;;;;55.65;11.60;;;;;;;8.72;100.00;96985.63;5100607;28;20075;-47
2022/11/13 08:16:53;;;;;;;56.33;10.68;;;;;;;8.76;100.00;96981.78;5101762;28;20087;-42
2022/11/13 08:19:21;;;;;;;40.63;11.02;;;;;;;8.91;100.00;96972.72;5099893;28;20083;-45
2022/11/13 08:21:49;;;;;;;41.83;10.80;;;;;;;9.11;100.00;96965.84;5103519;28;20074;-41
2022/11/13 08:24:18;;;;;;;32.03;11.23;;;;;;;8.62;100.00;96967.09;5101961;28;20514;-45
2022/11/13 08:26:47;;;;;;;37.55;10.23;;;;;;;9.34;100.00;96952.63;5103363;28;20075;-47
2022/11/13 08:29:16;;;;;;;21.73;10.40;;;;;;;9.63;100.00;96945.81;5099261;28;20483;-47
2022/11/13 08:31:44;;;;;;;18.20;12.23;;;;;;;10.11;100.00;96931.28;5100721;28;20086;-40
2022/11/13 08:34:13;;;;;;;21.67;12.65;;;;;;;10.29;100.00;96926.28;5103243;28;20446;-48
2022/11/13 08:36:41;;;;;;;25.48;13.05;;;;;;;10.39;100.00;96925.38;5099498;28;20079;-46
2022/11/13 08:39:10;;;;;;;19.70;10.23;;;;;;;11.00;100.00;96927.09;5095336;28;20522;-45
2022/11/13 08:41:38;;;;;;;23.48;12.77;;;;;;;11.38;100.00;96950.06;5099401;28;20463;-41
2022/11/13 08:44:09;;;;;;;18.85;9.65;;;;;;;10.23;100.00;96946.91;5102331;28;20075;-50
2022/11/13 08:46:37;;;;;;;;;;;;;;;11.43;100.00;96940.94;5098053;28;20082;-43
2022/11/13 08:49:06;;;;;;;17.45;9.18;;;;;;;11.08;100.00;96944.88;5101741;28;19963;-42
2022/11/13 08:51:34;;;;;;;27.85;10.10;;;;;;;11.02;100.00;96945.44;5100952;28;20075;-41
2022/11/13 08:54:02;;;;;;;11.35;8.95;;;;;;;10.08;100.00;96950.00;5099999;28;20088;-43
2022/11/13 08:56:31;;;;;;;12.18;8.30;;;;;;;10.30;100.00;96935.88;5104948;28;20091;-44
2022/11/13 08:58:59;;;;;;;14.10;8.65;;;;;;;10.47;100.00;96943.19;5097459;28;22488;-44
2022/11/13 09:01:29;;;;;;;11.65;8.45;;;;;;;9.87;100.00;96942.94;5098691;28;20074;-45
2022/11/13 09:03:58;;;;;;;19.30;9.63;;;;;;;9.77;100.00;96954.34;5101100;28;20082;-47
2022/11/13 09:06:26;;;;;;;18.17;8.63;;;;;;;9.56;100.00;96946.44;5098942;28;20082;-48
2022/11/13 09:08:55;;;;;;;14.45;9.20;;;;;;;9.24;100.00;96953.38;5101717;28;20059;-50
2022/11/13 09:11:26;;;;;;;16.60;9.57;;;;;;;10.39;100.00;96941.19;5098738;28;20098;-47
2022/11/13 09:13:55;;;;;;;14.55;8.75;;;;;;;9.66;100.00;96942.91;5101316;28;20083;-39
2022/11/13 09:16:23;;;;;;;20.85;8.75;;;;;;;10.19;100.00;96934.13;5103777;28;20071;-46
2022/11/13 09:18:53;;;;;;;10.18;8.18;;;;;;;10.76;100.00;96926.63;5101101;28;20514;-49
2022/11/13 09:21:21;;;;;;;15.30;10.20;;;;;;;10.44;100.00;96933.72;5099119;28;20079;-48
2022/11/13 09:23:49;;;;;;;14.25;8.82;;;;;;;10.63;100.00;96930.34;5101568;28;20090;-50
2022/11/13 09:26:18;;;;;;;20.30;12.65;;;;;;;10.39;100.00;96928.03;5095277;28;20083;-44
2022/11/13 09:28:46;;;;;;;16.10;11.15;;;;;;;10.89;100.00;96916.66;5103505;28;20075;-43
2022/11/13 09:31:14;;;;;;;14.80;10.57;;;;;;;11.99;100.00;96912.00;5099282;28;20098;-42
2022/11/13 09:33:43;;;;;;;14.77;10.38;;;;;;;11.74;100.00;96908.09;5103098;28;20087;-42
2022/11/13 09:36:14;;;;;;;12.35;9.90;;;;;;;11.28;100.00;96919.34;5103219;28;20079;-49
2022/11/13 09:38:43;;;;;;;12.65;9.40;;;;;;;10.80;100.00;96914.81;5099803;28;20530;-49
2022/11/13 09:41:13;;;;;;;11.95;9.20;;;;;;;11.03;100.00;96911.00;5098872;28;20086;-48
2022/11/13 09:43:45;;;;;;;14.00;9.77;;;;;;;11.35;100.00;96905.47;5095214;28;20082;-45
2022/11/13 09:46:18;;;;;;;13.20;10.18;;;;;;;10.78;100.00;96907.06;5095262;28;20079;-43
2022/11/13 09:48:51;;;;;;;13.90;10.10;;;;;;;10.89;100.00;96892.91;5098263;28;20090;-43
2022/11/13 09:51:22;;;;;;;15.68;10.80;;;;;;;11.00;100.00;96887.50;5100576;28;20079;-46
2022/11/13 09:53:50;;;;;;;17.63;11.02;;;;;;;11.30;100.00;96880.47;5102066;28;20098;-44
2022/11/13 09:56:31;;;;;;;20.73;11.60;;;;;;;11.17;100.00;96881.56;5097161;28;20090;-41
2022/11/13 09:59:04;;;;;;;13.55;11.13;;;;;;;11.21;100.00;96886.56;5100798;28;20089;-44
2022/11/13 10:01:40;;;;;;;14.70;11.07;;;;;;;11.07;100.00;96879.88;5095580;28;20096;-44
2022/11/13 10:04:11;;;;;;;14.30;10.68;;;;;;;11.10;100.00;96874.34;5097807;28;20525;-47
2022/11/13 10:06:56;;;;;;;14.20;11.00;;;;;;;11.81;100.00;96855.53;5096416;28;20086;-46
2022/11/13 10:09:30;;;;;;;13.27;10.00;;;;;;;11.79;100.00;96865.41;5098849;28;20518;-47
2022/11/13 10:12:01;;;;;;;13.25;10.15;;;;;;;11.68;100.00;96858.47;5099392;28;20079;-46
2022/11/13 10:14:35;;;;;;;14.73;11.43;;;;;;;11.61;100.00;96858.19;5097562;28;20075;-44
2022/11/13 10:17:08;;;;;;;13.95;10.82;;;;;;;11.50;100.00;96860.16;5098940;28;20083;-44
2022/11/13 10:19:42;;;;;;;16.73;11.70;;;;;;;12.01;100.00;96849.25;5102074;28;20106;-46
2022/11/13 10:22:17;;;;;;;14.07;11.10;;;;;;;12.26;100.00;96845.13;5098724;28;20477;-50
2022/11/13 10:25:11;;;;;;;17.85;11.60;;;;;;;12.52;100.00;96837.31;5095874;28;20087;-44
2022/11/13 10:27:40;;;;;;;14.85;11.18;;;;;;;12.18;100.00;96836.22;5102969;28;20055;-41
2022/11/13 10:30:14;;;;;;;15.52;11.02;;;;;;;12.18;100.00;96838.88;5100698;28;20088;-47
2022/11/13 10:32:44;;;;;;;14.60;11.13;;;;;;;13.59;100.00;96817.19;5097757;28;20067;-43
2022/11/13 10:35:37;;;;;;;16.73;12.03;;;;;;;12.75;100.00;96816.59;5097936;28;20083;-47
2022/11/13 10:38:09;;;;;;;15.95;11.50;;;;;;;13.24;100.00;96813.59;5099827;28;20573;-45
2022/11/13 10:40:39;;;;;;;15.38;11.00;;;;;;;13.90;100.00;96806.97;5097157;28;20098;-42
2022/11/13 10:43:14;;;;;;;16.42;11.40;;;;;;;14.37;100.00;96798.59;5097214;28;20089;-46
2022/11/13 10:45:43;;;;;;;16.20;11.65;;;;;;;14.23;100.00;96797.38;5100272;28;20075;-47
2022/11/13 10:48:22;;;;;;;15.40;11.88;;;;;;;13.59;100.00;96796.00;5093448;28;20090;-52
2022/11/13 10:50:58;;;;;;;14.60;10.77;;;;;;;13.63;100.00;96792.91;5102008;28;20090;-46
2022/11/13 10:53:37;;;;;;;14.82;10.70;;;;;;;14.44;100.00;96787.16;5099489;28;20093;-49
2022/11/13 10:56:14;;;;;;;13.93;10.82;;;;;;;13.38;100.00;96781.28;5094273;28;20079;-43
2022/11/13 10:58:42;;;;;;;16.10;11.73;;;;;;;13.50;100.00;96772.09;5099752;28;20106;-42
2022/11/13 11:01:15;;;;;;;15.02;11.77;;;;;;;14.50;100.00;96772.47;5094727;28;20094;-48
2022/11/13 11:03:49;;;;;;;15.02;11.20;;;;;;;14.19;100.00;96772.16;5100448;28;20474;-44
2022/11/13 11:06:17;;;;;;;13.20;11.18;;;;;;;14.23;100.00;96766.34;5096770;28;20082;-46
2022/11/13 11:08:47;;;;;;;15.77;12.00;;;;;;;14.82;100.00;96750.47;5092768;28;20593;-49
2022/11/13 11:14:17;;;;;;;16.17;11.65;;;;;;;14.42;100.00;96757.31;5096931;28;20083;-49
2022/11/13 11:16:46;;;;;;;15.70;11.20;;;;;;;14.62;100.00;96736.66;5095012;28;20075;-45
2022/11/13 11:19:15;;;;;;;15.32;11.35;;;;;;;14.25;100.00;96740.50;5096778;28;20521;-47
2022/11/13 11:21:44;;;;;;;17.67;12.10;;;;;;;15.12;100.00;96734.88;5100301;28;20098;-40
2022/11/13 11:24:18;;;;;;;15.82;11.52;;;;;;;15.04;100.00;96718.97;5098445;28;20137;-46
2022/11/13 11:26:50;;;;;;;15.88;11.63;;;;;;;14.75;100.00;96728.22;5100809;28;20075;-46
2022/11/13 11:29:24;;;;;;;16.20;11.90;;;;;;;14.93;100.00;96718.28;5106604;28;20071;-43
2022/11/13 11:31:54;;;;;;;15.07;11.10;;;;;;;14.97;100.00;96724.09;5095504;28;20083;-49
2022/11/13 11:34:28;;;;;;;13.27;10.70;;;;;;;14.83;100.00;96716.75;5104529;28;20704;-46